sensor_id;sensor_type;location;lat;lon;timestamp;pressure;altitude;pressure_sealevel;temperature;humidity
53300;BME280;39187;48.476;8.310;2022-12-07T00:01:10;91127.50;;;0.72;100.00
53300;BME280;39187;48.476;8.310;2022-12-07T00:03:37;91129.38;;;0.71;100.00
53300;BME280;39187;48.476;8.310;2022-12-07T00:06:05;91117.75;;;0.69;100.00
53300;BME280;39187;48.476;8.310;2022-12-07T00:08:32;91115.50;;;0.71;100.00
53300;BME280;39187;48.476;8.310;2022-12-07T00:11:06;91122.69;;;0.74;100.00
53300;BME280;39187;48.476;8.310;2022-12-07T00:13:32;91115.16;;;0.72;100.00
53300;BME280;39187;48.476;8.310;2022-12-07T00:16:02;91113.88;;;0.59;100.00
53300;BME280;39187;48.476;8.310;2022-12-07T00:18:28;91106.97;;;0.48;100.00
53300;BME280;39187;48.476;8.310;2022-12-07T00:23:27;91108.94;;;0.54;100.00
53300;BME280;39187;48.476;8.310;2022-12-07T00:25:52;91109.50;;;0.67;100.00
53300;BME280;39187;48.476;8.310;2022-12-07T00:28:18;91102.78;;;0.69;100.00
53300;BME280;39187;48.476;8.310;2022-12-07T00:30:43;91104.59;;;0.65;100.00
53300;BME280;39187;48.476;8.310;2022-12-07T00:33:09;91101.31;;;0.72;100.00
53300;BME280;39187;48.476;8.310;2022-12-07T00:35:34;91105.50;;;0.76;100.00
53300;BME280;39187;48.476;8.310;2022-12-07T00:38:00;91099.50;;;0.76;100.00
53300;BME280;39187;48.476;8.310;2022-12-07T00:40:25;91105.88;;;0.78;100.00
53300;BME280;39187;48.476;8.310;2022-12-07T00:42:50;91110.00;;;0.76;100.00
53300;BME280;39187;48.476;8.310;2022-12-07T00:45:16;91096.13;;;0.75;100.00
53300;BME280;39187;48.476;8.310;2022-12-07T00:47:41;91099.06;;;0.70;100.00
53300;BME280;39187;48.476;8.310;2022-12-07T00:50:07;91093.09;;;0.73;100.00
53300;BME280;39187;48.476;8.310;2022-12-07T00:52:33;91090.91;;;0.75;100.00
53300;BME280;39187;48.476;8.310;2022-12-07T00:54:58;91096.13;;;0.75;100.00
53300;BME280;39187;48.476;8.310;2022-12-07T00:57:24;91098.69;;;0.72;100.00
53300;BME280;39187;48.476;8.310;2022-12-07T00:59:49;91099.44;;;0.72;100.00
53300;BME280;39187;48.476;8.310;2022-12-07T01:02:15;91099.41;;;0.69;100.00
53300;BME280;39187;48.476;8.310;2022-12-07T01:04:40;91098.25;;;0.66;100.00
53300;BME280;39187;48.476;8.310;2022-12-07T01:07:06;91095.63;;;0.66;100.00
53300;BME280;39187;48.476;8.310;2022-12-07T01:09:31;91097.13;;;0.64;100.00
53300;BME280;39187;48.476;8.310;2022-12-07T01:11:57;91101.22;;;0.65;100.00
53300;BME280;39187;48.476;8.310;2022-12-07T01:14:23;91098.22;;;0.63;100.00
53300;BME280;39187;48.476;8.310;2022-12-07T01:16:48;91094.53;;;0.41;100.00
53300;BME280;39187;48.476;8.310;2022-12-07T01:19:14;91092.13;;;0.55;100.00
53300;BME280;39187;48.476;8.310;2022-12-07T01:21:39;91098.47;;;0.54;100.00
53300;BME280;39187;48.476;8.310;2022-12-07T01:24:07;91101.53;;;0.60;100.00
53300;BME280;39187;48.476;8.310;2022-12-07T01:26:34;91108.63;;;0.59;100.00
53300;BME280;39187;48.476;8.310;2022-12-07T01:29:00;91106.00;;;0.59;100.00
53300;BME280;39187;48.476;8.310;2022-12-07T01:31:27;91107.69;;;0.18;100.00
53300;BME280;39187;48.476;8.310;2022-12-07T01:33:55;91108.94;;;0.54;100.00
53300;BME280;39187;48.476;8.310;2022-12-07T01:36:29;91113.53;;;0.61;100.00
53300;BME280;39187;48.476;8.310;2022-12-07T01:39:00;91115.78;;;0.62;100.00
53300;BME280;39187;48.476;8.310;2022-12-07T01:41:29;91109.69;;;0.55;100.00
53300;BME280;39187;48.476;8.310;2022-12-07T01:46:46;91105.31;;;0.62;100.00
53300;BME280;39187;48.476;8.310;2022-12-07T01:49:17;91108.31;;;0.64;100.00
53300;BME280;39187;48.476;8.310;2022-12-07T01:51:46;91118.44;;;0.66;100.00
53300;BME280;39187;48.476;8.310;2022-12-07T01:54:13;91113.19;;;0.62;100.00
53300;BME280;39187;48.476;8.310;2022-12-07T01:56:44;91116.28;;;0.45;100.00
53300;BME280;39187;48.476;8.310;2022-12-07T01:59:13;91122.78;;;0.55;100.00
53300;BME280;39187;48.476;8.310;2022-12-07T02:01:38;91126.50;;;0.54;100.00
53300;BME280;39187;48.476;8.310;2022-12-07T02:04:05;91125.41;;;0.55;100.00
53300;BME280;39187;48.476;8.310;2022-12-07T02:06:31;91125.06;;;0.56;100.00
53300;BME280;39187;48.476;8.310;2022-12-07T02:08:57;91120.47;;;0.50;100.00
53300;BME280;39187;48.476;8.310;2022-12-07T02:11:22;91123.91;;;0.54;100.00
53300;BME280;39187;48.476;8.310;2022-12-07T02:13:48;91122.09;;;0.31;100.00
53300;BME280;39187;48.476;8.310;2022-12-07T02:21:51;91122.66;;;0.44;100.00
53300;BME280;39187;48.476;8.310;2022-12-07T02:24:36;91121.94;;;0.47;100.00
53300;BME280;39187;48.476;8.310;2022-12-07T02:27:52;91120.81;;;0.48;100.00
53300;BME280;39187;48.476;8.310;2022-12-07T02:30:22;91116.50;;;0.33;100.00
53300;BME280;39187;48.476;8.310;2022-12-07T02:33:08;91101.94;;;0.35;100.00
53300;BME280;39187;48.476;8.310;2022-12-07T02:35:51;91105.66;;;0.34;100.00
53300;BME280;39187;48.476;8.310;2022-12-07T02:38:47;91115.16;;;0.43;100.00
53300;BME280;39187;48.476;8.310;2022-12-07T02:41:23;91111.69;;;0.38;100.00
53300;BME280;39187;48.476;8.310;2022-12-07T02:44:02;91115.16;;;0.43;100.00
53300;BME280;39187;48.476;8.310;2022-12-07T02:46:38;91113.53;;;0.34;100.00
53300;BME280;39187;48.476;8.310;2022-12-07T02:49:07;91122.25;;;0.42;100.00
53300;BME280;39187;48.476;8.310;2022-12-07T02:51:34;91116.91;;;0.35;100.00
53300;BME280;39187;48.476;8.310;2022-12-07T02:54:11;91119.28;;;0.44;100.00
53300;BME280;39187;48.476;8.310;2022-12-07T03:10:18;91101.59;;;0.37;100.00
53300;BME280;39187;48.476;8.310;2022-12-07T03:13:22;91089.97;;;0.34;100.00
53300;BME280;39187;48.476;8.310;2022-12-07T03:16:08;91088.34;;;0.26;100.00
53300;BME280;39187;48.476;8.310;2022-12-07T03:18:38;91088.00;;;0.28;100.00
53300;BME280;39187;48.476;8.310;2022-12-07T03:21:11;91083.88;;;0.27;100.00
53300;BME280;39187;48.476;8.310;2022-12-07T03:23:39;91081.13;;;0.16;100.00
53300;BME280;39187;48.476;8.310;2022-12-07T03:26:09;91083.13;;;0.00;100.00
53300;BME280;39187;48.476;8.310;2022-12-07T03:28:39;91092.13;;;0.03;100.00
53300;BME280;39187;48.476;8.310;2022-12-07T03:34:06;91102.38;;;0.15;100.00
53300;BME280;39187;48.476;8.310;2022-12-07T03:36:50;91093.78;;;0.14;100.00
53300;BME280;39187;48.476;8.310;2022-12-07T03:39:28;91092.13;;;0.03;100.00
53300;BME280;39187;48.476;8.310;2022-12-07T03:41:58;91093.75;;;0.11;100.00
53300;BME280;39187;48.476;8.310;2022-12-07T03:44:26;91090.38;;;0.10;100.00
53300;BME280;39187;48.476;8.310;2022-12-07T03:47:15;91092.88;;;0.03;100.00
53300;BME280;39187;48.476;8.310;2022-12-07T03:49:50;91097.81;;;0.08;100.00
53300;BME280;39187;48.476;8.310;2022-12-07T03:55:06;91095.50;;;0.03;100.00
53300;BME280;39187;48.476;8.310;2022-12-07T03:57:35;91099.28;;;0.06;100.00
53300;BME280;39187;48.476;8.310;2022-12-07T04:00:04;91100.38;;;0.05;100.00
53300;BME280;39187;48.476;8.310;2022-12-07T04:02:30;91090.88;;;-0.07;100.00
53300;BME280;39187;48.476;8.310;2022-12-07T04:04:56;91093.94;;;-0.02;100.00
53300;BME280;39187;48.476;8.310;2022-12-07T04:07:21;91100.72;;;0.03;100.00
53300;BME280;39187;48.476;8.310;2022-12-07T04:09:47;91099.56;;;0.00;100.00
53300;BME280;39187;48.476;8.310;2022-12-07T04:12:12;91091.72;;;0.00;100.00
53300;BME280;39187;48.476;8.310;2022-12-07T04:14:38;91094.28;;;-0.03;100.00
53300;BME280;39187;48.476;8.310;2022-12-07T04:17:04;91097.09;;;-0.15;100.00
53300;BME280;39187;48.476;8.310;2022-12-07T04:19:31;91092.94;;;-0.16;100.00
53300;BME280;39187;48.476;8.310;2022-12-07T04:21:59;91090.50;;;-0.28;100.00
53300;BME280;39187;48.476;8.310;2022-12-07T04:24:25;91080.97;;;-0.17;100.00
53300;BME280;39187;48.476;8.310;2022-12-07T04:26:51;91085.06;;;-0.20;100.00
53300;BME280;39187;48.476;8.310;2022-12-07T04:29:18;91073.19;;;-0.14;100.00
53300;BME280;39187;48.476;8.310;2022-12-07T04:31:44;91086.16;;;-0.21;100.00
53300;BME280;39187;48.476;8.310;2022-12-07T04:34:10;91086.09;;;-0.47;100.00
53300;BME280;39187;48.476;8.310;2022-12-07T04:36:36;91084.66;;;-0.22;100.00
53300;BME280;39187;48.476;8.310;2022-12-07T04:39:02;91083.09;;;-0.26;100.00
53300;BME280;39187;48.476;8.310;2022-12-07T04:41:28;91076.00;;;-0.26;100.00
53300;BME280;39187;48.476;8.310;2022-12-07T04:43:55;91079.41;;;-0.22;100.00
53300;BME280;39187;48.476;8.310;2022-12-07T04:46:22;91088.78;;;-0.21;100.00
53300;BME280;39187;48.476;8.310;2022-12-07T04:48:48;91082.72;;;-0.25;100.00
53300;BME280;39187;48.476;8.310;2022-12-07T04:51:17;91080.19;;;-0.21;100.00
53300;BME280;39187;48.476;8.310;2022-12-07T04:53:43;91088.66;;;-0.28;100.00
53300;BME280;39187;48.476;8.310;2022-12-07T04:56:09;91079.00;;;-0.24;100.00
53300;BME280;39187;48.476;8.310;2022-12-07T04:58:34;91074.19;;;-0.22;100.00
53300;BME280;39187;48.476;8.310;2022-12-07T05:01:00;91075.13;;;-0.33;100.00
53300;BME280;39187;48.476;8.310;2022-12-07T05:03:25;91069.78;;;-0.41;100.00
53300;BME280;39187;48.476;8.310;2022-12-07T05:05:51;91072.44;;;-0.37;100.00
53300;BME280;39187;48.476;8.310;2022-12-07T05:08:16;91075.31;;;-0.46;100.00
53300;BME280;39187;48.476;8.310;2022-12-07T05:10:42;91070.34;;;-0.51;100.00
53300;BME280;39187;48.476;8.310;2022-12-07T05:13:07;91077.66;;;-0.60;100.00
53300;BME280;39187;48.476;8.310;2022-12-07T05:15:33;91077.66;;;-0.60;100.00
53300;BME280;39187;48.476;8.310;2022-12-07T05:17:59;91079.44;;;-0.64;100.00
53300;BME280;39187;48.476;8.310;2022-12-07T05:20:24;91079.41;;;-0.67;100.00
53300;BME280;39187;48.476;8.310;2022-12-07T05:22:50;91070.00;;;-0.72;100.00
53300;BME280;39187;48.476;8.310;2022-12-07T05:25:15;91066.91;;;-0.77;100.00
53300;BME280;39187;48.476;8.310;2022-12-07T05:27:41;91068.69;;;-0.82;100.00
53300;BME280;39187;48.476;8.310;2022-12-07T05:30:07;91069.78;;;-0.83;100.00
53300;BME280;39187;48.476;8.310;2022-12-07T05:32:32;91074.91;;;-0.90;100.00
53300;BME280;39187;48.476;8.310;2022-12-07T05:34:58;91069.19;;;-0.95;100.00
53300;BME280;39187;48.476;8.310;2022-12-07T05:37:23;91065.00;;;-1.00;100.00
53300;BME280;39187;48.476;8.310;2022-12-07T05:39:49;91063.44;;;-1.04;100.00
53300;BME280;39187;48.476;8.310;2022-12-07T05:42:14;91062.25;;;-1.07;100.00
53300;BME280;39187;48.476;8.310;2022-12-07T05:44:42;91077.88;;;-1.10;100.00
53300;BME280;39187;48.476;8.310;2022-12-07T05:47:08;91073.66;;;-1.15;100.00
53300;BME280;39187;48.476;8.310;2022-12-07T05:49:34;91074.72;;;-1.19;100.00
53300;BME280;39187;48.476;8.310;2022-12-07T05:51:59;91079.50;;;-1.22;100.00
53300;BME280;39187;48.476;8.310;2022-12-07T05:54:25;91080.53;;;-1.26;100.00
53300;BME280;39187;48.476;8.310;2022-12-07T05:56:51;91081.25;;;-1.29;100.00
53300;BME280;39187;48.476;8.310;2022-12-07T05:59:16;91081.50;;;-1.34;100.00
53300;BME280;39187;48.476;8.310;2022-12-07T06:01:56;91079.25;;;-1.36;100.00
53300;BME280;39187;48.476;8.310;2022-12-07T06:04:23;91076.22;;;-1.38;100.00
53300;BME280;39187;48.476;8.310;2022-12-07T06:06:50;91079.16;;;-1.39;100.00
53300;BME280;39187;48.476;8.310;2022-12-07T06:09:16;91082.53;;;-1.39;100.00
53300;BME280;39187;48.476;8.310;2022-12-07T06:11:43;91075.78;;;-1.40;100.00
53300;BME280;39187;48.476;8.310;2022-12-07T06:14:28;91085.47;;;-1.40;100.00
53300;BME280;39187;48.476;8.310;2022-12-07T06:16:54;91084.66;;;-1.44;100.00
53300;BME280;39187;48.476;8.310;2022-12-07T06:19:19;91075.66;;;-1.47;100.00
53300;BME280;39187;48.476;8.310;2022-12-07T06:21:45;91075.31;;;-1.45;100.00
53300;BME280;39187;48.476;8.310;2022-12-07T06:24:12;91082.06;;;-1.44;100.00
53300;BME280;39187;48.476;8.310;2022-12-07T06:26:38;91089.88;;;-1.44;100.00
53300;BME280;39187;48.476;8.310;2022-12-07T06:29:04;91086.50;;;-1.45;100.00
53300;BME280;39187;48.476;8.310;2022-12-07T06:31:30;91092.75;;;-1.49;100.00
53300;BME280;39187;48.476;8.310;2022-12-07T06:34:06;91093.59;;;-1.45;100.00
53300;BME280;39187;48.476;8.310;2022-12-07T06:36:32;91101.63;;;-1.54;100.00
53300;BME280;39187;48.476;8.310;2022-12-07T06:38:58;91105.13;;;-1.46;100.00
53300;BME280;39187;48.476;8.310;2022-12-07T06:41:24;91102.25;;;-1.41;100.00
53300;BME280;39187;48.476;8.310;2022-12-07T06:43:50;91101.03;;;-1.47;100.00
53300;BME280;39187;48.476;8.310;2022-12-07T06:46:16;91099.91;;;-1.46;100.00
53300;BME280;39187;48.476;8.310;2022-12-07T06:48:42;91107.81;;;-1.43;100.00
53300;BME280;39187;48.476;8.310;2022-12-07T06:51:08;91102.94;;;-1.44;100.00
53300;BME280;39187;48.476;8.310;2022-12-07T06:53:35;91106.78;;;-1.38;100.00
53300;BME280;39187;48.476;8.310;2022-12-07T06:56:00;91103.41;;;-1.39;100.00
53300;BME280;39187;48.476;8.310;2022-12-07T06:58:26;91103.91;;;-1.33;100.00
53300;BME280;39187;48.476;8.310;2022-12-07T07:00:53;91104.00;;;-1.30;100.00
53300;BME280;39187;48.476;8.310;2022-12-07T07:03:18;91105.06;;;-1.31;100.00
53300;BME280;39187;48.476;8.310;2022-12-07T07:05:44;91094.34;;;-1.45;100.00
53300;BME280;39187;48.476;8.310;2022-12-07T07:08:10;91097.78;;;-1.41;100.00
53300;BME280;39187;48.476;8.310;2022-12-07T07:10:36;91099.13;;;-1.47;100.00
53300;BME280;39187;48.476;8.310;2022-12-07T07:13:02;91103.91;;;-1.33;100.00
53300;BME280;39187;48.476;8.310;2022-12-07T07:15:28;91104.03;;;-1.26;100.00
53300;BME280;39187;48.476;8.310;2022-12-07T07:17:53;91100.28;;;-1.29;100.00
53300;BME280;39187;48.476;8.310;2022-12-07T07:20:19;91101.72;;;-1.12;100.00
53300;BME280;39187;48.476;8.310;2022-12-07T07:22:45;91106.75;;;-1.03;100.00
53300;BME280;39187;48.476;8.310;2022-12-07T07:25:10;91110.66;;;-0.94;100.00
53300;BME280;39187;48.476;8.310;2022-12-07T07:27:36;91111.06;;;-0.92;100.00
53300;BME280;39187;48.476;8.310;2022-12-07T07:30:01;91111.50;;;-0.90;100.00
53300;BME280;39187;48.476;8.310;2022-12-07T07:32:27;91111.25;;;-1.00;100.00
53300;BME280;39187;48.476;8.310;2022-12-07T07:34:53;91115.25;;;-0.87;100.00
53300;BME280;39187;48.476;8.310;2022-12-07T07:37:18;91116.00;;;-0.87;99.67
53300;BME280;39187;48.476;8.310;2022-12-07T07:39:44;91111.19;;;-0.85;99.79
53300;BME280;39187;48.476;8.310;2022-12-07T07:42:09;91112.72;;;-0.84;99.31
53300;BME280;39187;48.476;8.310;2022-12-07T07:44:35;91110.03;;;-0.87;99.31
53300;BME280;39187;48.476;8.310;2022-12-07T07:47:01;91112.50;;;-0.94;100.00
53300;BME280;39187;48.476;8.310;2022-12-07T07:49:26;91120.19;;;-0.82;100.00
53300;BME280;39187;48.476;8.310;2022-12-07T07:51:52;91120.56;;;-0.84;100.00
53300;BME280;39187;48.476;8.310;2022-12-07T07:54:17;91125.03;;;-0.84;100.00
53300;BME280;39187;48.476;8.310;2022-12-07T07:56:43;91120.75;;;-0.73;100.00
53300;BME280;39187;48.476;8.310;2022-12-07T07:59:08;91120.44;;;-0.68;100.00
53300;BME280;39187;48.476;8.310;2022-12-07T08:01:34;91123.06;;;-0.68;100.00
53300;BME280;39187;48.476;8.310;2022-12-07T08:04:00;91122.03;;;-0.63;100.00
53300;BME280;39187;48.476;8.310;2022-12-07T08:06:25;91125.38;;;-0.63;100.00
53300;BME280;39187;48.476;8.310;2022-12-07T08:08:52;91129.53;;;-0.62;100.00
53300;BME280;39187;48.476;8.310;2022-12-07T08:11:17;91135.94;;;-0.59;100.00
53300;BME280;39187;48.476;8.310;2022-12-07T08:13:45;91127.38;;;-0.56;100.00
53300;BME280;39187;48.476;8.310;2022-12-07T08:16:15;91138.94;;;-0.57;100.00
53300;BME280;39187;48.476;8.310;2022-12-07T08:18:41;91145.47;;;-0.48;100.00
53300;BME280;39187;48.476;8.310;2022-12-07T08:21:10;91135.00;;;-0.48;100.00
53300;BME280;39187;48.476;8.310;2022-12-07T08:23:36;91135.47;;;-0.42;100.00
53300;BME280;39187;48.476;8.310;2022-12-07T08:26:08;91135.94;;;-0.36;100.00
53300;BME280;39187;48.476;8.310;2022-12-07T08:28:34;91136.03;;;-0.33;99.99
53300;BME280;39187;48.476;8.310;2022-12-07T08:31:03;91137.81;;;-0.37;99.81
53300;BME280;39187;48.476;8.310;2022-12-07T08:33:30;91129.84;;;-0.44;99.90
53300;BME280;39187;48.476;8.310;2022-12-07T08:36:06;91136.06;;;-0.29;100.00
53300;BME280;39187;48.476;8.310;2022-12-07T08:38:34;91138.22;;;-0.35;100.00
53300;BME280;39187;48.476;8.310;2022-12-07T08:41:00;91135.59;;;-0.35;100.00
53300;BME280;39187;48.476;8.310;2022-12-07T08:43:26;91140.06;;;-0.35;100.00
53300;BME280;39187;48.476;8.310;2022-12-07T08:46:13;91131.72;;;-0.22;100.00
53300;BME280;39187;48.476;8.310;2022-12-07T08:51:16;91130.28;;;-0.19;100.00
53300;BME280;39187;48.476;8.310;2022-12-07T08:53:42;91131.13;;;-0.12;100.00
53300;BME280;39187;48.476;8.310;2022-12-07T08:56:09;91126.94;;;-0.16;100.00
53300;BME280;39187;48.476;8.310;2022-12-07T08:58:36;91121.19;;;-0.03;100.00
53300;BME280;39187;48.476;8.310;2022-12-07T09:01:03;91127.19;;;-0.02;100.00
53300;BME280;39187;48.476;8.310;2022-12-07T09:03:30;91129.38;;;-0.04;99.75
53300;BME280;39187;48.476;8.310;2022-12-07T09:05:56;91128.94;;;-0.10;100.00
53300;BME280;39187;48.476;8.310;2022-12-07T09:08:33;91135.16;;;0.05;99.51
53300;BME280;39187;48.476;8.310;2022-12-07T09:11:00;91141.41;;;0.00;99.46
53300;BME280;39187;48.476;8.310;2022-12-07T09:13:26;91136.88;;;-0.03;99.70
53300;BME280;39187;48.476;8.310;2022-12-07T09:15:51;91138.09;;;0.04;99.16
53300;BME280;39187;48.476;8.310;2022-12-07T09:18:17;91138.44;;;0.02;99.34
53300;BME280;39187;48.476;8.310;2022-12-07T09:20:42;91137.75;;;0.05;99.63
53300;BME280;39187;48.476;8.310;2022-12-07T09:23:08;91143.75;;;0.06;100.00
53300;BME280;39187;48.476;8.310;2022-12-07T09:25:34;91137.59;;;0.17;99.75
53300;BME280;39187;48.476;8.310;2022-12-07T09:27:59;91133.56;;;0.23;99.82
53300;BME280;39187;48.476;8.310;2022-12-07T09:30:26;91137.63;;;0.21;100.00
53300;BME280;39187;48.476;8.310;2022-12-07T09:32:57;91134.34;;;0.27;100.00
53300;BME280;39187;48.476;8.310;2022-12-07T09:35:24;91137.03;;;0.31;100.00
53300;BME280;39187;48.476;8.310;2022-12-07T09:37:49;91137.16;;;0.38;100.00
53300;BME280;39187;48.476;8.310;2022-12-07T09:40:16;91130.84;;;0.43;100.00
53300;BME280;39187;48.476;8.310;2022-12-07T09:42:46;91134.44;;;0.57;100.00
53300;BME280;39187;48.476;8.310;2022-12-07T09:45:22;91134.69;;;0.49;100.00
53300;BME280;39187;48.476;8.310;2022-12-07T09:47:48;91132.06;;;0.49;100.00
53300;BME280;39187;48.476;8.310;2022-12-07T09:50:17;91128.38;;;0.53;100.00
53300;BME280;39187;48.476;8.310;2022-12-07T09:52:45;91124.41;;;0.63;100.00
53300;BME280;39187;48.476;8.310;2022-12-07T09:55:16;91114.63;;;0.60;99.77
53300;BME280;39187;48.476;8.310;2022-12-07T09:57:42;91116.69;;;0.21;100.00
53300;BME280;39187;48.476;8.310;2022-12-07T10:00:16;91125.06;;;0.07;100.00
53300;BME280;39187;48.476;8.310;2022-12-07T10:03:02;91115.31;;;0.04;100.00
53300;BME280;39187;48.476;8.310;2022-12-07T10:05:32;91116.03;;;0.27;100.00
53300;BME280;39187;48.476;8.310;2022-12-07T10:07:59;91109.91;;;0.43;100.00
53300;BME280;39187;48.476;8.310;2022-12-07T10:10:31;91106.31;;;0.54;100.00
53300;BME280;39187;48.476;8.310;2022-12-07T10:12:59;91100.13;;;0.66;100.00
53300;BME280;39187;48.476;8.310;2022-12-07T10:15:51;91101.59;;;0.63;100.00
53300;BME280;39187;48.476;8.310;2022-12-07T10:18:36;91099.88;;;0.74;100.00
53300;BME280;39187;48.476;8.310;2022-12-07T10:23:30;91092.03;;;0.48;100.00
53300;BME280;39187;48.476;8.310;2022-12-07T10:25:55;91093.75;;;0.63;100.00
53300;BME280;39187;48.476;8.310;2022-12-07T10:28:22;91088.66;;;0.77;100.00
53300;BME280;39187;48.476;8.310;2022-12-07T10:35:57;91084.03;;;0.64;100.00
53300;BME280;39187;48.476;8.310;2022-12-07T10:38:25;91083.47;;;0.81;100.00
53300;BME280;39187;48.476;8.310;2022-12-07T10:41:12;91076.91;;;0.94;100.00
53300;BME280;39187;48.476;8.310;2022-12-07T10:43:46;91079.09;;;0.89;100.00
53300;BME280;39187;48.476;8.310;2022-12-07T10:46:43;91079.19;;;0.99;100.00
53300;BME280;39187;48.476;8.310;2022-12-07T11:05:45;91065.31;;;0.95;100.00
53300;BME280;39187;48.476;8.310;2022-12-07T11:13:56;91052.97;;;0.96;100.00
53300;BME280;39187;48.476;8.310;2022-12-07T11:22:23;91056.00;;;0.38;100.00
53300;BME280;39187;48.476;8.310;2022-12-07T11:33:36;91040.41;;;1.12;100.00
53300;BME280;39187;48.476;8.310;2022-12-07T11:38:37;91044.31;;;1.29;100.00
53300;BME280;39187;48.476;8.310;2022-12-07T11:41:04;91046.25;;;1.35;100.00
53300;BME280;39187;48.476;8.310;2022-12-07T11:46:25;91034.31;;;1.38;100.00
53300;BME280;39187;48.476;8.310;2022-12-07T11:52:02;91027.81;;;1.25;100.00
53300;BME280;39187;48.476;8.310;2022-12-07T11:54:36;91021.94;;;1.38;100.00
53300;BME280;39187;48.476;8.310;2022-12-07T11:57:12;91029.13;;;1.45;100.00
53300;BME280;39187;48.476;8.310;2022-12-07T11:59:46;91024.91;;;1.33;100.00
53300;BME280;39187;48.476;8.310;2022-12-07T12:02:23;91022.78;;;1.46;100.00
53300;BME280;39187;48.476;8.310;2022-12-07T12:07:26;91017.41;;;1.35;100.00
53300;BME280;39187;48.476;8.310;2022-12-07T12:10:06;91015.53;;;1.36;100.00
53300;BME280;39187;48.476;8.310;2022-12-07T12:20:26;91017.59;;;1.56;100.00
53300;BME280;39187;48.476;8.310;2022-12-07T12:26:05;91020.56;;;1.51;100.00
53300;BME280;39187;48.476;8.310;2022-12-07T12:33:54;91014.97;;;1.56;100.00
53300;BME280;39187;48.476;8.310;2022-12-07T12:49:43;90993.81;;;1.35;100.00
53300;BME280;39187;48.476;8.310;2022-12-07T12:57:35;90989.94;;;1.22;100.00
53300;BME280;39187;48.476;8.310;2022-12-07T13:00:15;90985.22;;;0.94;100.00
53300;BME280;39187;48.476;8.310;2022-12-07T13:02:55;90982.69;;;1.05;100.00
53300;BME280;39187;48.476;8.310;2022-12-07T13:05:23;90979.09;;;1.24;100.00
53300;BME280;39187;48.476;8.310;2022-12-07T13:07:58;90981.22;;;1.07;100.00
53300;BME280;39187;48.476;8.310;2022-12-07T13:13:25;90978.97;;;1.09;100.00
53300;BME280;39187;48.476;8.310;2022-12-07T13:16:40;90980.19;;;1.19;100.00
53300;BME280;39187;48.476;8.310;2022-12-07T13:18:41;90969.72;;;1.23;100.00
53300;BME280;39187;48.476;8.310;2022-12-07T13:26:36;90969.25;;;1.10;100.00
53300;BME280;39187;48.476;8.310;2022-12-07T13:31:44;90966.59;;;1.06;100.00
53300;BME280;39187;48.476;8.310;2022-12-07T13:34:34;90966.28;;;1.11;100.00
53300;BME280;39187;48.476;8.310;2022-12-07T13:37:01;90966.13;;;0.97;100.00
53300;BME280;39187;48.476;8.310;2022-12-07T13:39:28;90961.44;;;0.76;100.00
53300;BME280;39187;48.476;8.310;2022-12-07T13:41:56;90963.09;;;0.92;100.00
53300;BME280;39187;48.476;8.310;2022-12-07T13:44:27;90966.59;;;0.36;100.00
53300;BME280;39187;48.476;8.310;2022-12-07T13:49:33;90962.06;;;0.63;100.00
53300;BME280;39187;48.476;8.310;2022-12-07T13:57:33;90945.69;;;0.39;100.00
53300;BME280;39187;48.476;8.310;2022-12-07T14:00:01;90944.41;;;0.60;100.00
53300;BME280;39187;48.476;8.310;2022-12-07T14:02:31;90952.53;;;0.48;100.00
53300;BME280;39187;48.476;8.310;2022-12-07T14:05:09;90950.00;;;0.58;100.00
53300;BME280;39187;48.476;8.310;2022-12-07T14:07:49;90950.03;;;0.25;100.00
53300;BME280;39187;48.476;8.310;2022-12-07T14:10:35;90949.88;;;0.44;100.00
53300;BME280;39187;48.476;8.310;2022-12-07T14:13:03;90951.59;;;0.33;100.00
53300;BME280;39187;48.476;8.310;2022-12-07T14:15:30;90955.97;;;0.55;100.00
53300;BME280;39187;48.476;8.310;2022-12-07T14:17:57;90954.06;;;0.52;100.00
53300;BME280;39187;48.476;8.310;2022-12-07T14:20:37;90954.88;;;0.56;100.00
53300;BME280;39187;48.476;8.310;2022-12-07T14:23:04;90959.69;;;0.54;100.00
53300;BME280;39187;48.476;8.310;2022-12-07T14:25:51;90955.97;;;0.55;100.00
53300;BME280;39187;48.476;8.310;2022-12-07T14:28:34;90955.91;;;0.52;100.00
53300;BME280;39187;48.476;8.310;2022-12-07T14:31:01;90950.22;;;0.43;100.00
53300;BME280;39187;48.476;8.310;2022-12-07T14:33:27;90957.31;;;0.42;100.00
53300;BME280;39187;48.476;8.310;2022-12-07T14:35:53;90950.66;;;0.48;100.00
53300;BME280;39187;48.476;8.310;2022-12-07T14:38:21;90950.91;;;0.39;100.00
53300;BME280;39187;48.476;8.310;2022-12-07T14:40:47;90953.97;;;0.45;100.00
53300;BME280;39187;48.476;8.310;2022-12-07T14:43:16;90941.97;;;0.40;100.00
53300;BME280;39187;48.476;8.310;2022-12-07T14:45:42;90956.47;;;0.34;100.00
53300;BME280;39187;48.476;8.310;2022-12-07T14:48:11;90943.03;;;0.36;100.00
53300;BME280;39187;48.476;8.310;2022-12-07T14:50:39;90945.59;;;0.32;100.00
53300;BME280;39187;48.476;8.310;2022-12-07T14:53:14;90946.00;;;0.34;100.00
53300;BME280;39187;48.476;8.310;2022-12-07T14:55:40;90951.72;;;0.14;100.00
53300;BME280;39187;48.476;8.310;2022-12-07T14:58:06;90946.28;;;0.26;100.00
53300;BME280;39187;48.476;8.310;2022-12-07T15:00:31;90947.78;;;0.27;100.00
53300;BME280;39187;48.476;8.310;2022-12-07T15:02:58;90946.28;;;0.26;100.00
53300;BME280;39187;48.476;8.310;2022-12-07T15:05:24;90945.16;;;0.27;100.00
53300;BME280;39187;48.476;8.310;2022-12-07T15:07:50;90946.06;;;0.08;100.00
53300;BME280;39187;48.476;8.310;2022-12-07T15:10:20;90947.69;;;0.20;100.00
53300;BME280;39187;48.476;8.310;2022-12-07T15:12:45;90945.47;;;0.22;100.00
53300;BME280;39187;48.476;8.310;2022-12-07T15:15:11;90957.50;;;0.26;100.00
53300;BME280;39187;48.476;8.310;2022-12-07T15:17:37;90954.50;;;0.24;100.00
53300;BME280;39187;48.476;8.310;2022-12-07T15:20:03;90952.03;;;0.09;100.00
53300;BME280;39187;48.476;8.310;2022-12-07T15:22:29;90952.81;;;0.09;100.00
53300;BME280;39187;48.476;8.310;2022-12-07T15:24:57;90955.88;;;0.15;100.00
53300;BME280;39187;48.476;8.310;2022-12-07T15:27:22;90944.25;;;0.12;100.00
53300;BME280;39187;48.476;8.310;2022-12-07T15:29:48;90950.84;;;0.03;100.00